Lister — ZDHW6 — position and weather

sailwx.info

Track history (hours):
 
Tides and Currents Weather Stations Pressure Air Temp Water Temp Dewpoint Dewpoint Depression Visibility Wind Speed Wind Dir Waves Ship Positions

Lister

Last reported at 2014-Dec-19 16:22 UTC. Time now 2014-Dec-19 17:27 UTC.
Position N 59°53' E 030°13'.

Length 89 m; draft 4.3 m.

Type: Ship. MMSI: 236381000.

Date/timePositionNaut miles runAvg speedWind from/ knotsBaromVisibWave heightAir tempDewpointWater temp
2014-Dec-19 16:22N 59°53' E 030°13'0 0.0
2014-Dec-19 03:28N 59°53' E 030°13'0 0.0
2014-Dec-19 01:22N 59°53' E 030°13'0 0.0
2014-Dec-18 21:33N 59°53' E 030°13'1 0.2
2014-Dec-18 17:09N 59°54' E 030°13'0 0.0
2014-Dec-18 16:30N 59°54' E 030°13'0 0.0
2014-Dec-18 15:33N 59°54' E 030°13'0 0.0
2014-Dec-18 14:30N 59°54' E 030°13'0 0.0
2014-Dec-18 13:33N 59°54' E 030°13'0 0.0
2014-Dec-18 12:24N 59°54' E 030°13'0 0.0
2014-Dec-18 11:30N 59°54' E 030°13'0 0.0
2014-Dec-18 08:30N 59°54' E 030°13'0 0.0
2014-Dec-18 07:09N 59°54' E 030°13'0 0.0
2014-Dec-18 06:33N 59°54' E 030°13'0 0.0
2014-Dec-18 05:33N 59°54' E 030°13'0 0.0
2014-Dec-18 04:30N 59°54' E 030°13'0 0.0
2014-Dec-18 03:21N 59°54' E 030°13'0 0.0
2014-Dec-18 02:24N 59°54' E 030°13'0 0.0
2014-Dec-18 01:30N 59°54' E 030°13'0 0.0
2014-Dec-17 19:18N 59°54' E 030°13'0 0.0
2014-Dec-17 15:06N 59°54' E 030°13'1 2.7
2014-Dec-17 14:33N 59°53' E 030°11'102 9.1
2014-Dec-17 03:23N 59°59' E 026°48'1011.9
2014-Dec-17 02:33N 59°58' E 026°28'5012.0
2014-Dec-16 22:24N 59°46' E 024°51'1012.2
2014-Dec-16 21:33N 59°44' E 024°31'37911.9
2014-Dec-15 13:33N 55°39' E 015°29'1212.2
2014-Dec-15 12:33N 55°33' E 015°10'1212.4
2014-Dec-15 11:33N 55°27' E 014°51'1312.8
2014-Dec-15 10:33N 55°19' E 014°34'1312.8
2014-Dec-15 09:33N 55°08' E 014°20'1312.8
2014-Dec-15 08:33N 54°58' E 014°09'1212.1
2014-Dec-15 07:33N 54°47' E 013°59'  
2014-Dec-12 00:21N 54°52' E 013°56'10 4.8
2014-Dec-11 22:16N 55°01' E 014°02'4 4.9
2014-Dec-11 21:32N 55°04' E 014°06'6 5.7
2014-Dec-11 20:33N 55°09' E 014°11'6 5.8
2014-Dec-11 19:34N 55°13' E 014°17'6 6.2
2014-Dec-11 18:34N 55°19' E 014°23'6 6.0
2014-Dec-11 17:34N 55°23' E 014°29'8 6.1
2014-Dec-11 16:18N 55°31' E 014°33'4 5.8
2014-Dec-11 15:33N 55°35' E 014°32'7 6.8
2014-Dec-11 14:33N 55°42' E 014°30'9 8.4
2014-Dec-11 13:29N 55°51' E 014°29'7 7.2
2014-Dec-11 12:32N 55°56' E 014°20'  
Track history (hours):
 
Tides and Currents Weather Stations Pressure Air Temp Water Temp Dewpoint Dewpoint Depression Visibility Wind Speed Wind Dir Waves Ship Positions

Lister

Last reported at 2014-Dec-19 16:22 UTC. Time now 2014-Dec-19 17:27 UTC.
Position N 59°53' E 030°13'.

Length 89 m; draft 4.3 m.

Type: Ship. MMSI: 236381000.

Date/timePositionNaut miles runAvg speedWind from/ knotsBaromVisibWave heightAir tempDewpointWater temp
2014-Dec-19 16:22N 59°53' E 030°13'0 0.0
2014-Dec-19 03:28N 59°53' E 030°13'0 0.0
2014-Dec-19 01:22N 59°53' E 030°13'0 0.0
2014-Dec-18 21:33N 59°53' E 030°13'1 0.2
2014-Dec-18 17:09N 59°54' E 030°13'0 0.0
2014-Dec-18 16:30N 59°54' E 030°13'0 0.0
2014-Dec-18 15:33N 59°54' E 030°13'0 0.0
2014-Dec-18 14:30N 59°54' E 030°13'0 0.0
2014-Dec-18 13:33N 59°54' E 030°13'0 0.0
2014-Dec-18 12:24N 59°54' E 030°13'0 0.0
2014-Dec-18 11:30N 59°54' E 030°13'0 0.0
2014-Dec-18 08:30N 59°54' E 030°13'0 0.0
2014-Dec-18 07:09N 59°54' E 030°13'0 0.0
2014-Dec-18 06:33N 59°54' E 030°13'0 0.0
2014-Dec-18 05:33N 59°54' E 030°13'0 0.0
2014-Dec-18 04:30N 59°54' E 030°13'0 0.0
2014-Dec-18 03:21N 59°54' E 030°13'0 0.0
2014-Dec-18 02:24N 59°54' E 030°13'0 0.0
2014-Dec-18 01:30N 59°54' E 030°13'0 0.0
2014-Dec-17 19:18N 59°54' E 030°13'0 0.0
2014-Dec-17 15:06N 59°54' E 030°13'1 2.7
2014-Dec-17 14:33N 59°53' E 030°11'102 9.1
2014-Dec-17 03:23N 59°59' E 026°48'1011.9
2014-Dec-17 02:33N 59°58' E 026°28'5012.0
2014-Dec-16 22:24N 59°46' E 024°51'1012.2
2014-Dec-16 21:33N 59°44' E 024°31'37911.9
2014-Dec-15 13:33N 55°39' E 015°29'1212.2
2014-Dec-15 12:33N 55°33' E 015°10'1212.4
2014-Dec-15 11:33N 55°27' E 014°51'1312.8
2014-Dec-15 10:33N 55°19' E 014°34'1312.8
2014-Dec-15 09:33N 55°08' E 014°20'1312.8
2014-Dec-15 08:33N 54°58' E 014°09'1212.1
2014-Dec-15 07:33N 54°47' E 013°59'  
2014-Dec-12 00:21N 54°52' E 013°56'10 4.8
2014-Dec-11 22:16N 55°01' E 014°02'4 4.9
2014-Dec-11 21:32N 55°04' E 014°06'6 5.7
2014-Dec-11 20:33N 55°09' E 014°11'6 5.8
2014-Dec-11 19:34N 55°13' E 014°17'6 6.2
2014-Dec-11 18:34N 55°19' E 014°23'6 6.0
2014-Dec-11 17:34N 55°23' E 014°29'8 6.1
2014-Dec-11 16:18N 55°31' E 014°33'4 5.8
2014-Dec-11 15:33N 55°35' E 014°32'7 6.8
2014-Dec-11 14:33N 55°42' E 014°30'9 8.4
2014-Dec-11 13:29N 55°51' E 014°29'7 7.2
2014-Dec-11 12:32N 55°56' E 014°20'  

Dump ship's entire track history